Aérodrome :







RETROUVEZ-NOUS SUR...

 
LOGIN :

S'inscrire | Disclaimer

   EN    FR    IT 

 









Légende :    VFR   VFR Marginal   IFR   IFR Intensif   IFR Très Intensif
Visi : 
Plafond : 
>= 8 km
>= 3000ft
5 à 8 km
1000 à 3000 ft
1500m à 5 km
500 à 1000 ft
800 à 1500m
200 à 500 ft
< 800m
< 200 ft
Symboles :   Orages  Brouillard  Fortes neiges  Fortes précipitations  Vent > 20 kt






- Altitude de l'aérodrome : 13 ft
- Code IATA : SXM


TNCM - Princess Juliana Int.

DERNIER METAR :
  • 081200Z 07007KT 050V110 9999 FEW018 28/23 Q1016 NOSIG

METARs EXPIRÉS :
  • 081100Z 08008KT 050V110 9999 SCT018 27/23 Q1015 NOSIG
  • 081000Z 04006KT 9999 FEW018 26/23 Q1015 NOSIG

TAF TNCM
Valide du 08 à 12h jusqu'au 09 à 12h UTC


081137Z 0812/0912 06005KT P6SM VCSH SCT018
FM081400 12013KT P6SM VCSH SCT018 SCT040



MET'MAP, la Météo Aéronautique d'un coup d'oeil ! - Copyright ORBIFLY Décembre 2007 - Disclaimer

ORBIFLY MET'MAP TEAM :

Programmation & Développement : Alexandra Zaïnal
Sur une idée originale de : Baudouin d'Aumeries
Assistance à la programmation : Marc-Olivier Méhu
Soutien technique & logistique : Manuel Goepfert

Contact : metmap@orbifly.com




SOURCES & CREDITS :

   NOAA